Terminal Aerodrome Forecast
Issued by NWS

Home | Current Version | Previous Version | Text Only | Print | Product List | Glossary On
Versions: 1 2 3 4 5 6 7 8 9 10 11 12
000
FTUS41 KPBZ 290521
TAFLBE
TAF
KLBE 290521Z 2906/3006 VRB03KT P6SM SCT250
      TEMPO 2908/2912 5SM BR
     FM291500 20005KT P6SM SCT040
      AMD NOT SKED=

USA.gov is the U.S. government's official web portal to all federal, state and local government web resources and services.